createdAt,value
2023-01-21T00:00:16.603Z,1.08
2023-01-21T00:02:44.273Z,1.18
2023-01-21T00:05:11.785Z,1.11
2023-01-21T00:07:40.689Z,1.57
2023-01-21T00:10:08.520Z,1.20
2023-01-21T00:12:36.194Z,1.35
2023-01-21T00:15:03.756Z,0.93
2023-01-21T00:17:35.338Z,1.08
2023-01-21T00:20:02.989Z,1.06
2023-01-21T00:22:30.461Z,1.16
2023-01-21T00:24:59.285Z,1.11
2023-01-21T00:27:26.863Z,1.23
2023-01-21T00:29:54.391Z,1.25
2023-01-21T00:32:21.886Z,1.00
2023-01-21T00:34:49.396Z,1.25
2023-01-21T00:37:16.905Z,1.22
2023-01-21T00:39:44.354Z,1.27
2023-01-21T00:42:13.179Z,1.02
2023-01-21T00:44:40.636Z,0.83
2023-01-21T00:47:08.445Z,1.27
2023-01-21T00:49:35.985Z,0.81
2023-01-21T00:52:03.443Z,0.67
2023-01-21T00:54:32.293Z,0.85
2023-01-21T00:56:59.787Z,1.11
2023-01-21T00:59:29.951Z,1.00
2023-01-21T01:01:57.445Z,0.99
2023-01-21T01:04:24.907Z,0.84
2023-01-21T01:06:52.464Z,0.91
2023-01-21T01:09:19.922Z,0.73
2023-01-21T01:11:47.393Z,1.17
2023-01-21T01:14:14.890Z,1.11
2023-01-21T01:16:43.775Z,1.07
2023-01-21T01:19:11.819Z,0.93
2023-01-21T01:21:39.413Z,1.01
2023-01-21T01:24:07.181Z,1.12
2023-01-21T01:26:35.495Z,1.26
2023-01-21T01:29:03.257Z,0.84
2023-01-21T01:31:30.752Z,0.92
2023-01-21T01:33:59.663Z,0.74
2023-01-21T01:36:27.118Z,0.47
2023-01-21T01:38:54.787Z,0.40
2023-01-21T01:41:22.997Z,0.64
2023-01-21T01:43:58.133Z,0.46
2023-01-21T01:46:26.278Z,0.68
2023-01-21T01:48:55.169Z,0.58
2023-01-21T01:51:24.658Z,0.80
2023-01-21T01:53:52.146Z,0.42
2023-01-21T01:56:19.662Z,0.34
2023-01-21T01:58:47.172Z,0.28
2023-01-21T02:01:14.659Z,0.35
2023-01-21T02:03:45.316Z,0.56
2023-01-21T02:06:12.938Z,0.63
2023-01-21T02:08:41.834Z,0.37
2023-01-21T02:11:12.750Z,0.47
2023-01-21T02:13:40.350Z,0.46
2023-01-21T02:16:17.500Z,0.55
2023-01-21T02:18:46.258Z,0.64
2023-01-21T02:21:31.682Z,0.23
2023-01-21T02:24:10.891Z,0.20
2023-01-21T02:26:47.304Z,0.41
2023-01-21T02:29:35.502Z,0.33
2023-01-21T02:32:11.881Z,0.18
2023-01-21T02:34:41.422Z,0.13
2023-01-21T02:37:10.984Z,0.29
2023-01-21T02:39:45.889Z,0.71
2023-01-21T02:42:13.820Z,0.38
2023-01-21T02:44:41.908Z,0.43
2023-01-21T02:47:15.985Z,0.40
2023-01-21T02:49:45.518Z,0.82
2023-01-21T02:52:17.908Z,0.89
2023-01-21T02:54:49.715Z,0.28
2023-01-21T02:57:17.754Z,0.62
2023-01-21T02:59:45.737Z,0.42
2023-01-21T03:02:14.297Z,0.37
2023-01-21T03:04:46.795Z,0.36
2023-01-21T03:07:14.656Z,0.59
2023-01-21T03:09:42.207Z,0.71
2023-01-21T03:12:17.473Z,1.10
2023-01-21T03:15:03.750Z,0.48
2023-01-21T03:17:33.500Z,0.58
2023-01-21T03:20:03.630Z,0.98
2023-01-21T03:22:32.680Z,0.05
2023-01-21T03:25:00.707Z,0.08
2023-01-21T03:27:28.348Z,0.82
2023-01-21T03:29:57.629Z,0.05
2023-01-21T03:32:25.183Z,0.47
2023-01-21T03:34:52.890Z,0.28
2023-01-21T03:37:23.813Z,0.34
2023-01-21T03:39:53.600Z,0.37
2023-01-21T03:42:21.203Z,0.13
2023-01-21T03:44:48.690Z,0.63
2023-01-21T03:47:18.392Z,0.24
2023-01-21T03:49:46.365Z,1.17
2023-01-21T03:52:13.982Z,1.12
2023-01-21T03:54:42.825Z,0.90
2023-01-21T03:57:10.332Z,0.71
2023-01-21T03:59:37.795Z,0.90
2023-01-21T04:02:05.318Z,1.45
2023-01-21T04:04:32.864Z,1.80
2023-01-21T04:07:00.388Z,1.04
2023-01-21T04:09:27.935Z,1.07
2023-01-21T04:11:57.744Z,1.44
2023-01-21T04:14:25.365Z,1.45
2023-01-21T04:16:52.827Z,1.70
2023-01-21T04:19:20.298Z,1.36
2023-01-21T04:21:47.741Z,1.56
2023-01-21T04:24:15.234Z,1.36
2023-01-21T04:26:42.729Z,1.40
2023-01-21T04:29:11.559Z,1.61
2023-01-21T04:31:39.044Z,1.50
2023-01-21T04:34:06.563Z,1.86
2023-01-21T04:36:34.056Z,1.88
2023-01-21T04:39:01.598Z,2.10
2023-01-21T04:41:29.102Z,2.58
2023-01-21T04:43:56.600Z,2.09
2023-01-21T04:46:25.475Z,2.03
2023-01-21T04:48:53.189Z,2.64
2023-01-21T04:51:20.879Z,2.33
2023-01-21T04:53:48.390Z,2.11
2023-01-21T04:56:15.973Z,2.14
2023-01-21T04:58:43.494Z,1.87
2023-01-21T05:01:11.070Z,1.93
2023-01-21T05:03:39.926Z,2.21
2023-01-21T05:06:07.663Z,2.55
2023-01-21T05:08:35.189Z,2.18
2023-01-21T05:11:02.659Z,2.40
2023-01-21T05:13:30.127Z,2.66
2023-01-21T05:15:57.658Z,2.80
2023-01-21T05:18:25.240Z,2.50
2023-01-21T05:20:55.538Z,2.14
2023-01-21T05:23:23.090Z,2.10
2023-01-21T05:25:50.593Z,1.98
2023-01-21T05:28:18.066Z,2.27
2023-01-21T05:30:45.629Z,2.27
2023-01-21T05:33:13.178Z,2.66
2023-01-21T05:35:40.697Z,2.68
2023-01-21T05:38:09.532Z,2.98
2023-01-21T05:40:37.053Z,2.76
2023-01-21T05:43:04.521Z,2.56
2023-01-21T05:45:32.055Z,3.02
2023-01-21T05:47:59.559Z,2.99
2023-01-21T05:50:27.049Z,3.22
2023-01-21T05:52:54.555Z,3.00
2023-01-21T05:55:23.447Z,3.21
2023-01-21T05:57:51.325Z,2.67
2023-01-21T06:00:19.649Z,2.86
2023-01-21T06:02:47.364Z,3.24
2023-01-21T06:05:14.924Z,3.05
2023-01-21T06:07:42.382Z,3.07
2023-01-21T06:10:10.358Z,3.06
2023-01-21T06:12:39.227Z,3.22
2023-01-21T06:15:07.390Z,3.41
2023-01-21T06:17:34.872Z,2.90
2023-01-21T06:20:02.368Z,3.07
2023-01-21T06:22:29.875Z,3.23
2023-01-21T06:24:57.366Z,3.22
2023-01-21T06:27:24.952Z,3.41
2023-01-21T06:29:53.793Z,3.40
2023-01-21T06:32:21.394Z,3.33
2023-01-21T06:34:48.929Z,3.17
2023-01-21T06:37:16.478Z,3.23
2023-01-21T06:39:43.945Z,3.14
2023-01-21T06:42:11.468Z,2.96
2023-01-21T06:44:38.940Z,3.21
2023-01-21T06:47:07.805Z,3.47
2023-01-21T06:49:35.358Z,3.53
2023-01-21T06:52:02.856Z,3.80
2023-01-21T06:54:30.684Z,3.66
2023-01-21T06:56:58.289Z,3.81
2023-01-21T06:59:25.843Z,3.79
2023-01-21T07:01:53.579Z,3.78
2023-01-21T07:04:22.442Z,3.87
2023-01-21T07:06:50.036Z,3.77
2023-01-21T07:09:17.505Z,3.86
2023-01-21T07:11:45.039Z,3.66
2023-01-21T07:14:12.654Z,3.82
2023-01-21T07:16:40.175Z,3.59
2023-01-21T07:19:07.862Z,3.75
2023-01-21T07:21:36.715Z,3.98
2023-01-21T07:24:04.362Z,3.56
2023-01-21T07:26:36.164Z,3.32
2023-01-21T07:29:03.711Z,3.71
2023-01-21T07:31:31.369Z,3.90
2023-01-21T07:33:58.946Z,3.96
2023-01-21T07:36:26.666Z,3.93
2023-01-21T07:38:55.584Z,3.88
2023-01-21T07:41:23.083Z,4.12
2023-01-21T07:43:50.809Z,4.14
2023-01-21T07:46:18.556Z,3.97
2023-01-21T07:48:48.195Z,4.07
2023-01-21T07:51:15.845Z,3.95
2023-01-21T07:53:43.403Z,3.99
2023-01-21T07:56:12.272Z,4.03
2023-01-21T07:58:39.811Z,3.75
2023-01-21T08:01:07.959Z,3.81
2023-01-21T08:03:35.457Z,3.25
2023-01-21T08:06:02.901Z,2.98
2023-01-21T08:08:30.361Z,3.43
2023-01-21T08:10:57.817Z,3.66
2023-01-21T08:13:26.947Z,3.72
2023-01-21T08:15:55.322Z,3.36
2023-01-21T08:18:23.093Z,3.28
2023-01-21T08:20:54.262Z,3.78
2023-01-21T08:23:21.835Z,3.87
2023-01-21T08:25:49.367Z,3.83
2023-01-21T08:28:16.883Z,4.12
2023-01-21T08:30:45.815Z,4.26
2023-01-21T08:33:13.351Z,4.04
2023-01-21T08:35:40.810Z,3.96
2023-01-21T08:38:08.346Z,4.09
2023-01-21T08:40:35.853Z,4.28
2023-01-21T08:43:03.992Z,4.14
2023-01-21T08:45:31.603Z,4.39
2023-01-21T08:48:02.956Z,4.32
2023-01-21T08:50:30.455Z,4.50
2023-01-21T08:52:57.962Z,4.30
2023-01-21T08:55:26.747Z,4.60
2023-01-21T08:57:54.620Z,4.61
2023-01-21T09:00:22.993Z,4.64
2023-01-21T09:02:51.710Z,4.65
2023-01-21T09:05:20.804Z,4.84
2023-01-21T09:07:48.320Z,5.24
2023-01-21T09:10:37.457Z,5.27
2023-01-21T09:13:05.621Z,4.79
2023-01-21T09:15:33.083Z,4.70
2023-01-21T09:18:00.614Z,5.01
2023-01-21T09:20:29.496Z,4.95
2023-01-21T09:22:57.049Z,3.94
2023-01-21T09:25:24.635Z,4.40
2023-01-21T09:27:52.413Z,3.88
2023-01-21T09:30:19.948Z,4.18
2023-01-21T09:32:47.472Z,4.16
2023-01-21T09:35:15.288Z,4.23
2023-01-21T09:37:44.289Z,4.40
2023-01-21T09:40:14.727Z,3.87
2023-01-21T09:42:42.589Z,3.65
2023-01-21T09:45:10.417Z,4.27
2023-01-21T09:47:38.615Z,4.00
2023-01-21T09:50:07.214Z,3.76
2023-01-21T09:52:36.930Z,3.35
2023-01-21T09:55:06.337Z,3.83
2023-01-21T09:57:37.143Z,3.97
2023-01-21T10:00:08.915Z,4.80
2023-01-21T10:02:38.871Z,3.96
2023-01-21T10:05:14.231Z,4.22
2023-01-21T10:07:42.869Z,3.33
2023-01-21T10:10:13.027Z,3.77
2023-01-21T10:12:54.089Z,4.19
2023-01-21T10:15:36.463Z,3.78
2023-01-21T10:18:04.495Z,4.12
2023-01-21T10:20:32.326Z,4.35
2023-01-21T10:23:01.114Z,3.78
2023-01-21T10:25:30.963Z,4.13
2023-01-21T10:27:59.565Z,4.91
2023-01-21T10:30:28.740Z,5.41
2023-01-21T10:32:56.409Z,5.56
2023-01-21T10:35:28.332Z,5.16
2023-01-21T10:37:56.565Z,5.86
2023-01-21T10:40:42.755Z,6.09
2023-01-21T10:43:12.558Z,4.73
2023-01-21T10:45:41.779Z,5.02
2023-01-21T10:48:12.194Z,5.86
2023-01-21T10:50:42.074Z,6.33
2023-01-21T10:53:13.434Z,5.83
2023-01-21T10:55:44.166Z,5.48
2023-01-21T10:58:15.842Z,5.25
2023-01-21T11:00:44.575Z,4.87
2023-01-21T11:03:12.726Z,5.17
2023-01-21T11:05:40.224Z,5.48
2023-01-21T11:08:07.706Z,5.86
2023-01-21T11:10:35.240Z,5.37
2023-01-21T11:13:02.763Z,4.70
2023-01-21T11:15:31.763Z,4.87
2023-01-21T11:17:59.726Z,4.56
2023-01-21T11:20:29.649Z,4.72
2023-01-21T11:22:57.224Z,4.30
2023-01-21T11:25:29.238Z,4.55
2023-01-21T11:27:56.738Z,5.69
2023-01-21T11:30:49.728Z,5.74
2023-01-21T11:33:23.350Z,5.34
2023-01-21T11:35:50.917Z,5.59
2023-01-21T11:38:25.913Z,5.22
2023-01-21T11:41:07.473Z,4.79
2023-01-21T11:43:36.809Z,4.69
2023-01-21T11:46:26.340Z,5.03
2023-01-21T11:48:54.990Z,5.40
2023-01-21T11:51:22.491Z,5.01
2023-01-21T11:53:49.937Z,5.76
2023-01-21T11:56:17.697Z,5.70
2023-01-21T11:58:45.259Z,5.87
2023-01-21T12:01:20.405Z,6.44
2023-01-21T12:03:51.508Z,6.37
2023-01-21T12:06:19.213Z,6.54
2023-01-21T12:08:49.231Z,6.38
2023-01-21T12:11:18.661Z,6.25
2023-01-21T12:13:47.084Z,6.43
2023-01-21T12:16:35.278Z,6.26
2023-01-21T12:19:16.406Z,6.80
2023-01-21T12:21:47.634Z,6.29
2023-01-21T12:24:18.808Z,6.10
2023-01-21T12:26:46.695Z,6.29
2023-01-21T12:29:22.837Z,6.11
2023-01-21T12:31:52.027Z,6.18
2023-01-21T12:34:22.600Z,5.91
2023-01-21T12:36:50.907Z,6.01
2023-01-21T12:39:19.886Z,6.17
2023-01-21T12:41:48.349Z,6.18
2023-01-21T12:44:17.759Z,6.25
2023-01-21T12:46:45.714Z,5.57
2023-01-21T12:49:15.414Z,5.81
2023-01-21T12:51:44.621Z,6.15
2023-01-21T12:54:14.955Z,6.14
2023-01-21T12:56:43.354Z,6.59
2023-01-21T12:59:13.179Z,6.89
2023-01-21T13:01:42.342Z,6.47
2023-01-21T13:04:15.680Z,6.85
2023-01-21T13:06:53.596Z,6.75
2023-01-21T13:09:23.379Z,6.66
2023-01-21T13:11:51.742Z,5.94
2023-01-21T13:14:22.554Z,6.13
2023-01-21T13:16:50.640Z,6.12
2023-01-21T13:19:18.164Z,5.09
2023-01-21T13:21:48.874Z,4.72
2023-01-21T13:24:17.045Z,4.58
2023-01-21T13:26:46.556Z,4.75
2023-01-21T13:29:15.667Z,5.96
2023-01-21T13:31:45.285Z,6.42
2023-01-21T13:34:13.934Z,5.55
2023-01-21T13:36:46.778Z,5.49
2023-01-21T13:39:17.756Z,5.32
2023-01-21T13:41:50.736Z,5.94
2023-01-21T13:44:31.095Z,6.35
2023-01-21T13:47:00.851Z,5.74
2023-01-21T13:49:38.381Z,6.19
2023-01-21T13:52:07.387Z,6.12
2023-01-21T13:54:40.456Z,5.67
2023-01-21T13:57:10.807Z,5.58
2023-01-21T13:59:39.381Z,6.09
2023-01-21T14:02:07.853Z,5.67
2023-01-21T14:04:36.401Z,5.62
2023-01-21T14:07:05.048Z,5.80
2023-01-21T14:09:34.949Z,5.83
2023-01-21T14:12:06.517Z,5.43
2023-01-21T14:14:58.181Z,6.21
2023-01-21T14:17:31.915Z,5.86
2023-01-21T14:20:27.656Z,5.73
2023-01-21T14:23:08.205Z,6.01
2023-01-21T14:25:38.165Z,6.07
2023-01-21T14:28:10.035Z,5.68
2023-01-21T14:30:39.812Z,5.28
2023-01-21T14:33:08.743Z,5.44
2023-01-21T14:35:37.212Z,5.48
2023-01-21T14:38:07.015Z,5.54
2023-01-21T14:40:35.027Z,5.69
2023-01-21T14:43:02.524Z,5.89
2023-01-21T14:45:48.760Z,5.48
2023-01-21T14:48:30.011Z,6.13
2023-01-21T14:51:10.248Z,6.12
2023-01-21T14:53:43.107Z,5.68
2023-01-21T14:56:16.120Z,5.33
2023-01-21T14:58:45.818Z,4.81
2023-01-21T15:01:24.981Z,4.71
2023-01-21T15:03:53.896Z,4.71
2023-01-21T15:06:22.514Z,4.84
2023-01-21T15:08:50.349Z,4.35
2023-01-21T15:11:19.508Z,5.10
2023-01-21T15:13:47.027Z,5.12
2023-01-21T15:16:15.960Z,5.33
2023-01-21T15:18:48.431Z,5.22
2023-01-21T15:21:35.772Z,4.89
2023-01-21T15:24:19.698Z,4.95
2023-01-21T15:27:02.207Z,5.09
2023-01-21T15:29:34.620Z,5.14
2023-01-21T15:32:22.890Z,4.78
2023-01-21T15:34:51.279Z,4.83
2023-01-21T15:37:20.999Z,4.95
2023-01-21T15:39:49.033Z,4.78
2023-01-21T15:42:19.731Z,4.75
2023-01-21T15:44:49.359Z,4.26
2023-01-21T15:47:23.566Z,4.60
2023-01-21T15:49:53.630Z,4.26
2023-01-21T15:52:26.364Z,4.31
2023-01-21T15:54:55.396Z,4.11
2023-01-21T15:57:34.958Z,4.06
2023-01-21T16:00:04.937Z,4.05
2023-01-21T16:02:32.907Z,4.06
2023-01-21T16:05:15.614Z,3.94
2023-01-21T16:07:47.772Z,3.87
2023-01-21T16:10:17.171Z,3.72
2023-01-21T16:12:48.198Z,3.74
2023-01-21T16:15:17.266Z,3.80
2023-01-21T16:17:49.649Z,3.80
2023-01-21T16:20:17.523Z,3.71
2023-01-21T16:22:45.446Z,3.58
2023-01-21T16:25:14.897Z,3.66
2023-01-21T16:27:46.131Z,3.29
2023-01-21T16:30:14.611Z,3.57
2023-01-21T16:32:42.323Z,3.47
2023-01-21T16:35:10.218Z,3.51
2023-01-21T16:37:37.792Z,3.51
2023-01-21T16:40:23.206Z,3.44
2023-01-21T16:42:52.033Z,3.64
2023-01-21T16:45:20.514Z,3.50
2023-01-21T16:47:53.697Z,3.45
2023-01-21T16:50:21.623Z,3.61
2023-01-21T16:52:49.178Z,3.67
2023-01-21T16:55:19.121Z,3.11
2023-01-21T16:57:49.323Z,3.41
2023-01-21T17:00:23.976Z,3.71
2023-01-21T17:02:51.543Z,3.28
2023-01-21T17:05:19.532Z,3.34
2023-01-21T17:07:48.093Z,3.49
2023-01-21T17:10:19.761Z,3.89
2023-01-21T17:12:47.861Z,3.74
2023-01-21T17:15:18.067Z,3.96
2023-01-21T17:17:47.070Z,4.04
2023-01-21T17:20:33.893Z,4.23
2023-01-21T17:23:02.831Z,3.91
2023-01-21T17:25:30.344Z,3.70
2023-01-21T17:27:57.864Z,3.50
2023-01-21T17:30:27.579Z,3.73
2023-01-21T17:32:57.076Z,3.79
2023-01-21T17:35:24.961Z,3.78
2023-01-21T17:37:53.365Z,3.93
2023-01-21T17:40:31.131Z,4.35
2023-01-21T17:42:58.863Z,4.07
2023-01-21T17:45:30.738Z,4.14
2023-01-21T17:48:14.968Z,3.97
2023-01-21T17:50:45.708Z,3.75
2023-01-21T17:53:15.359Z,3.68
2023-01-21T17:55:43.525Z,3.23
2023-01-21T17:58:25.872Z,3.26
2023-01-21T18:00:53.369Z,3.23
2023-01-21T18:03:22.197Z,3.05
2023-01-21T18:05:50.072Z,3.22
2023-01-21T18:08:18.295Z,3.00
2023-01-21T18:10:46.348Z,2.76
2023-01-21T18:13:14.085Z,3.05
2023-01-21T18:15:43.053Z,2.84
2023-01-21T18:18:14.557Z,2.99
2023-01-21T18:20:43.444Z,2.82
2023-01-21T18:23:11.109Z,2.69
2023-01-21T18:25:38.670Z,3.07
2023-01-21T18:28:07.625Z,3.10
2023-01-21T18:30:35.163Z,2.69
2023-01-21T18:33:02.689Z,2.96
2023-01-21T18:35:30.358Z,3.04
2023-01-21T18:37:59.177Z,2.78
2023-01-21T18:40:26.715Z,2.97
2023-01-21T18:42:55.511Z,2.72
2023-01-21T18:45:23.449Z,2.95
2023-01-21T18:47:51.605Z,2.69
2023-01-21T18:50:19.986Z,2.83
2023-01-21T18:52:47.533Z,2.90
2023-01-21T18:55:17.038Z,2.88
2023-01-21T18:57:45.356Z,2.63
2023-01-21T19:00:16.491Z,2.75
2023-01-21T19:02:44.109Z,2.65
2023-01-21T19:05:11.642Z,2.68
2023-01-21T19:07:39.136Z,2.71
2023-01-21T19:10:07.255Z,2.73
2023-01-21T19:12:36.140Z,2.50
2023-01-21T19:15:04.931Z,2.77
2023-01-21T19:17:33.259Z,2.49
2023-01-21T19:20:00.799Z,2.65
2023-01-21T19:22:28.433Z,2.66
2023-01-21T19:24:55.971Z,2.71
2023-01-21T19:27:24.210Z,2.57
2023-01-21T19:29:53.100Z,2.50
2023-01-21T19:32:20.692Z,2.75
2023-01-21T19:34:48.282Z,2.54
2023-01-21T19:37:15.953Z,2.55
2023-01-21T19:39:43.501Z,2.38
2023-01-21T19:42:11.352Z,2.35
2023-01-21T19:44:40.299Z,2.45
2023-01-21T19:47:10.695Z,2.36
2023-01-21T19:49:38.170Z,1.97
2023-01-21T19:52:06.419Z,2.04
2023-01-21T19:54:33.951Z,2.42
2023-01-21T19:57:01.474Z,2.04
2023-01-21T19:59:29.031Z,2.13
2023-01-21T20:01:56.655Z,1.96
2023-01-21T20:04:25.495Z,1.95
2023-01-21T20:06:53.006Z,1.87
2023-01-21T20:09:20.511Z,2.25
2023-01-21T20:11:47.967Z,2.18
2023-01-21T20:14:15.525Z,1.64
2023-01-21T20:16:45.946Z,1.54
2023-01-21T20:19:15.764Z,1.79
2023-01-21T20:21:55.034Z,1.90
2023-01-21T20:24:30.160Z,1.76
2023-01-21T20:26:57.834Z,1.51
2023-01-21T20:29:26.883Z,1.33
2023-01-21T20:31:54.735Z,1.43
2023-01-21T20:34:22.547Z,1.77
2023-01-21T20:36:51.889Z,1.75
2023-01-21T20:39:19.545Z,1.59
2023-01-21T20:41:47.084Z,1.83
2023-01-21T20:44:14.583Z,2.40
2023-01-21T20:46:43.325Z,2.08
2023-01-21T20:49:10.847Z,2.22
2023-01-21T20:51:38.344Z,2.11
2023-01-21T20:54:07.240Z,1.97
2023-01-21T20:56:34.798Z,1.64
2023-01-21T20:59:02.246Z,1.76
2023-01-21T21:01:31.128Z,1.52
2023-01-21T21:03:58.625Z,1.31
2023-01-21T21:06:27.611Z,1.81
2023-01-21T21:08:55.200Z,1.64
2023-01-21T21:11:24.098Z,1.41
2023-01-21T21:13:52.406Z,1.56
2023-01-21T21:16:20.954Z,1.49
2023-01-21T21:18:48.693Z,1.33
2023-01-21T21:21:16.208Z,1.49
2023-01-21T21:23:46.560Z,1.44
2023-01-21T21:26:18.457Z,1.21
2023-01-21T21:28:47.749Z,1.44
2023-01-21T21:31:15.758Z,1.38
2023-01-21T21:33:43.346Z,1.17
2023-01-21T21:36:14.959Z,1.42
2023-01-21T21:38:42.724Z,1.18
2023-01-21T21:41:31.903Z,1.64
2023-01-21T21:44:00.874Z,1.53
2023-01-21T21:46:48.022Z,1.89
2023-01-21T21:49:15.635Z,1.12
2023-01-21T21:51:45.419Z,1.20
2023-01-21T21:54:14.192Z,1.28
2023-01-21T21:56:41.714Z,1.57
2023-01-21T21:59:11.256Z,1.50
2023-01-21T22:01:38.773Z,1.28
2023-01-21T22:04:06.310Z,1.32
2023-01-21T22:06:33.841Z,1.36
2023-01-21T22:09:01.359Z,1.40
2023-01-21T22:11:29.059Z,1.44
2023-01-21T22:13:56.947Z,1.40
2023-01-21T22:16:26.204Z,1.21
2023-01-21T22:18:53.864Z,1.23
2023-01-21T22:21:22.198Z,1.37
2023-01-21T22:23:49.789Z,1.30
2023-01-21T22:26:17.817Z,1.52
2023-01-21T22:28:45.507Z,1.04
2023-01-21T22:31:14.116Z,1.17
2023-01-21T22:33:43.057Z,1.23
2023-01-21T22:36:11.718Z,1.37
2023-01-21T22:38:40.733Z,1.07
2023-01-21T22:41:08.551Z,1.47
2023-01-21T22:43:36.045Z,1.32
2023-01-21T22:46:03.517Z,1.44
2023-01-21T22:48:31.734Z,1.74
2023-01-21T22:51:01.249Z,2.19
2023-01-21T22:53:29.008Z,2.16
2023-01-21T22:55:56.961Z,2.17
2023-01-21T22:58:24.534Z,2.08
2023-01-21T23:00:52.205Z,1.95
2023-01-21T23:03:20.610Z,1.71
2023-01-21T23:05:48.142Z,1.87
2023-01-21T23:08:17.083Z,2.10
2023-01-21T23:10:44.637Z,1.77
2023-01-21T23:13:12.188Z,2.29
2023-01-21T23:15:42.534Z,2.08
2023-01-21T23:18:10.087Z,2.29
2023-01-21T23:20:37.589Z,2.41
2023-01-21T23:23:05.082Z,2.10
2023-01-21T23:25:33.868Z,2.16
2023-01-21T23:28:01.840Z,2.12
2023-01-21T23:30:30.072Z,1.86
2023-01-21T23:32:57.534Z,2.15
2023-01-21T23:35:25.025Z,2.10
2023-01-21T23:37:52.497Z,1.91
2023-01-21T23:40:20.231Z,1.72
2023-01-21T23:42:49.517Z,2.08
2023-01-21T23:45:17.057Z,1.70
2023-01-21T23:47:44.575Z,1.80
2023-01-21T23:50:12.329Z,1.47
2023-01-21T23:52:40.248Z,1.80
2023-01-21T23:55:08.472Z,1.39
2023-01-21T23:57:36.061Z,1.88
